Amur-2507 — XUEC6 — position and weather

sailwx.info

Track history (hours):
 
Tides and Currents Weather Stations Pressure Air Temp Water Temp Dewpoint Dewpoint Depression Visibility Wind Speed Wind Dir Waves Ship Positions

Amur-2507

Last reported at 2014-Sep-08 03:23 UTC. Time now 2014-Sep-16 07:30 UTC.
Position N 44°39' E 035°40'.
Warning: this ship's position is 8 days out of date.

Length 115 m; draft 3.2 m.

Type: Cargo ship. MMSI: 515694000.

Date/timePositionNaut miles runAvg speedWind from/ knotsBaromVisibWave heightAir tempDewpointWater temp
2014-Sep-08 03:23N 44°39' E 035°40'36 7.3
2014-Sep-07 22:30N 44°29' E 034°52'7 7.4
2014-Sep-07 21:33N 44°27' E 034°43'7 7.5
2014-Sep-07 20:33N 44°25' E 034°33'7 7.3
2014-Sep-07 19:33N 44°23' E 034°23'314 6.3
2014-Sep-05 17:33N 40°58' E 028°59'4 3.4
2014-Sep-05 16:32N 40°58' E 028°55'1 0.5
2014-Sep-05 15:31N 40°59' E 028°54'0 0.0
2014-Sep-05 14:33N 40°59' E 028°54'0 0.0
2014-Sep-05 12:29N 40°59' E 028°54'0 0.0
2014-Sep-05 11:33N 40°59' E 028°54'0 0.0
2014-Sep-05 09:24N 40°59' E 028°54'0 0.1
2014-Sep-05 08:33N 40°59' E 028°54'0 0.0
2014-Sep-05 06:21N 40°59' E 028°54'0 0.0
2014-Sep-05 05:33N 40°59' E 028°54'0 0.1
2014-Sep-05 04:23N 40°59' E 028°54'  
2014-Aug-31 05:22N 40°55' E 028°50'6 6.3
2014-Aug-31 04:28N 40°58' E 028°57'309 6.6
2014-Aug-29 05:33N 44°23' E 034°09'12 8.2
2014-Aug-29 04:08N 44°29' E 034°24'5 8.3
2014-Aug-29 03:34N 44°31' E 034°30'  
Track history (hours):
 
Tides and Currents Weather Stations Pressure Air Temp Water Temp Dewpoint Dewpoint Depression Visibility Wind Speed Wind Dir Waves Ship Positions

Amur-2507

Last reported at 2014-Sep-08 03:23 UTC. Time now 2014-Sep-16 07:30 UTC.
Position N 44°39' E 035°40'.
Warning: this ship's position is 8 days out of date.

Length 115 m; draft 3.2 m.

Type: Cargo ship. MMSI: 515694000.

Date/timePositionNaut miles runAvg speedWind from/ knotsBaromVisibWave heightAir tempDewpointWater temp
2014-Sep-08 03:23N 44°39' E 035°40'36 7.3
2014-Sep-07 22:30N 44°29' E 034°52'7 7.4
2014-Sep-07 21:33N 44°27' E 034°43'7 7.5
2014-Sep-07 20:33N 44°25' E 034°33'7 7.3
2014-Sep-07 19:33N 44°23' E 034°23'314 6.3
2014-Sep-05 17:33N 40°58' E 028°59'4 3.4
2014-Sep-05 16:32N 40°58' E 028°55'1 0.5
2014-Sep-05 15:31N 40°59' E 028°54'0 0.0
2014-Sep-05 14:33N 40°59' E 028°54'0 0.0
2014-Sep-05 12:29N 40°59' E 028°54'0 0.0
2014-Sep-05 11:33N 40°59' E 028°54'0 0.0
2014-Sep-05 09:24N 40°59' E 028°54'0 0.1
2014-Sep-05 08:33N 40°59' E 028°54'0 0.0
2014-Sep-05 06:21N 40°59' E 028°54'0 0.0
2014-Sep-05 05:33N 40°59' E 028°54'0 0.1
2014-Sep-05 04:23N 40°59' E 028°54'  
2014-Aug-31 05:22N 40°55' E 028°50'6 6.3
2014-Aug-31 04:28N 40°58' E 028°57'309 6.6
2014-Aug-29 05:33N 44°23' E 034°09'12 8.2
2014-Aug-29 04:08N 44°29' E 034°24'5 8.3
2014-Aug-29 03:34N 44°31' E 034°30'  

Dump ship's entire track history